createdAt,value
2018-06-28T00:00:15.577Z,1.98
2018-06-28T00:02:44.097Z,1.57
2018-06-28T00:05:12.545Z,2.27
2018-06-28T00:07:41.141Z,2.47
2018-06-28T00:10:09.617Z,1.77
2018-06-28T00:12:38.096Z,1.85
2018-06-28T00:15:06.823Z,2.10
2018-06-28T00:17:35.337Z,1.82
2018-06-28T00:20:03.945Z,3.58
2018-06-28T00:22:32.401Z,1.72
2018-06-28T00:25:00.837Z,3.17
2018-06-28T00:27:29.302Z,2.30
2018-06-28T00:29:57.904Z,1.72
2018-06-28T00:32:26.427Z,1.92
2018-06-28T00:34:54.892Z,1.72
2018-06-28T00:37:23.376Z,1.87
2018-06-28T00:39:51.799Z,2.12
2018-06-28T00:42:20.279Z,1.47
2018-06-28T00:44:48.732Z,2.22
2018-06-28T00:47:17.221Z,1.65
2018-06-28T00:49:45.677Z,2.20
2018-06-28T00:52:14.149Z,2.15
2018-06-28T00:54:42.586Z,2.00
2018-06-28T00:57:11.064Z,1.85
2018-06-28T00:59:39.552Z,1.65
2018-06-28T01:02:08.068Z,1.70
2018-06-28T01:04:36.538Z,1.47
2018-06-28T01:07:05.300Z,1.67
2018-06-28T01:09:33.848Z,2.10
2018-06-28T01:12:02.353Z,1.72
2018-06-28T01:14:30.760Z,2.25
2018-06-28T01:16:58.924Z,1.92
2018-06-28T01:19:27.429Z,1.82
2018-06-28T01:21:55.921Z,1.98
2018-06-28T01:24:24.364Z,2.50
2018-06-28T01:26:52.811Z,1.55
2018-06-28T01:29:22.127Z,1.62
2018-06-28T01:31:50.571Z,1.80
2018-06-28T01:34:19.037Z,2.08
2018-06-28T01:36:47.480Z,2.90
2018-06-28T01:39:15.928Z,1.47
2018-06-28T01:41:55.642Z,1.57
2018-06-28T01:44:24.099Z,1.80
2018-06-28T01:46:52.694Z,1.70
2018-06-28T01:49:21.177Z,1.70
2018-06-28T01:51:49.635Z,1.50
2018-06-28T01:54:18.104Z,1.50
2018-06-28T01:56:46.539Z,2.05
2018-06-28T01:59:14.966Z,1.70
2018-06-28T02:01:43.408Z,1.70
2018-06-28T02:04:11.877Z,1.35
2018-06-28T02:06:40.357Z,1.45
2018-06-28T02:09:09.981Z,1.37
2018-06-28T02:11:38.507Z,1.87
2018-06-28T02:14:07.245Z,2.85
2018-06-28T02:16:35.648Z,1.50
2018-06-28T02:19:04.108Z,2.02
2018-06-28T02:21:32.645Z,3.65
2018-06-28T02:24:01.120Z,1.40
2018-06-28T02:26:29.594Z,3.87
2018-06-28T02:28:58.068Z,1.80
2018-06-28T02:31:26.476Z,1.50
2018-06-28T02:33:54.637Z,4.35
2018-06-28T02:36:23.075Z,1.60
2018-06-28T02:38:51.553Z,1.87
2018-06-28T02:41:19.962Z,1.55
2018-06-28T02:43:48.412Z,1.67
2018-06-28T02:46:16.892Z,3.08
2018-06-28T02:48:45.361Z,1.67
2018-06-28T02:51:13.808Z,2.67
2018-06-28T02:53:42.501Z,1.70
2018-06-28T02:56:10.985Z,1.90
2018-06-28T02:58:39.493Z,1.95
2018-06-28T03:01:08.015Z,1.92
2018-06-28T03:03:36.457Z,1.90
2018-06-28T03:06:04.937Z,2.42
2018-06-28T03:08:33.401Z,1.90
2018-06-28T03:11:01.888Z,2.08
2018-06-28T03:13:30.352Z,1.70
2018-06-28T03:15:59.085Z,3.25
2018-06-28T03:18:27.554Z,1.77
2018-06-28T03:20:56.017Z,2.22
2018-06-28T03:23:24.457Z,4.80
2018-06-28T03:25:52.913Z,2.85
2018-06-28T03:28:21.339Z,2.25
2018-06-28T03:30:49.905Z,2.15
2018-06-28T03:33:18.250Z,2.40
2018-06-28T03:35:46.717Z,2.05
2018-06-28T03:38:15.147Z,1.70
2018-06-28T03:40:43.617Z,2.08
2018-06-28T03:43:12.069Z,2.02
2018-06-28T03:45:40.620Z,2.95
2018-06-28T03:48:09.057Z,2.30
2018-06-28T03:50:37.516Z,2.20
2018-06-28T03:53:06.001Z,2.85
2018-06-28T03:55:34.473Z,2.22
2018-06-28T03:58:02.889Z,2.08
2018-06-28T04:00:31.415Z,2.15
2018-06-28T04:02:59.890Z,1.98
2018-06-28T04:05:28.369Z,2.42
2018-06-28T04:07:56.849Z,2.08
2018-06-28T04:10:25.339Z,3.05
2018-06-28T04:12:53.780Z,2.20
2018-06-28T04:15:22.268Z,2.55
2018-06-28T04:17:50.701Z,2.00
2018-06-28T04:20:19.153Z,1.62
2018-06-28T04:22:47.646Z,2.27
2018-06-28T04:25:16.122Z,2.08
2018-06-28T04:27:44.532Z,2.85
2018-06-28T04:30:13.021Z,1.87
2018-06-28T04:32:41.560Z,2.00
2018-06-28T04:35:10.027Z,1.90
2018-06-28T04:37:38.500Z,2.17
2018-06-28T04:40:06.960Z,3.58
2018-06-28T04:42:35.392Z,4.10
2018-06-28T04:45:03.911Z,2.35
2018-06-28T04:47:32.345Z,3.25
2018-06-28T04:50:00.773Z,2.33
2018-06-28T04:52:29.213Z,2.27
2018-06-28T04:54:57.688Z,3.70
2018-06-28T04:57:26.129Z,5.92
2018-06-28T04:59:54.560Z,7.10
2018-06-28T05:02:23.025Z,2.90
2018-06-28T05:04:51.457Z,3.72
2018-06-28T05:07:19.958Z,3.22
2018-06-28T05:09:48.419Z,3.98
2018-06-28T05:12:16.890Z,4.10
2018-06-28T05:14:45.320Z,3.72
2018-06-28T05:17:13.788Z,4.28
2018-06-28T05:19:42.228Z,4.20
2018-06-28T05:22:10.692Z,4.55
2018-06-28T05:24:39.158Z,4.55
2018-06-28T05:27:07.624Z,4.70
2018-06-28T05:29:36.165Z,4.87
2018-06-28T05:32:04.649Z,4.90
2018-06-28T05:34:33.129Z,4.37
2018-06-28T05:37:01.601Z,3.87
2018-06-28T05:39:30.036Z,5.83
2018-06-28T05:41:58.493Z,4.28
2018-06-28T05:44:27.306Z,5.05
2018-06-28T05:46:55.814Z,6.72
2018-06-28T05:49:24.297Z,6.22
2018-06-28T05:51:52.785Z,4.47
2018-06-28T05:54:21.257Z,5.03
2018-06-28T05:56:49.824Z,6.20
2018-06-28T05:59:18.292Z,5.15
2018-06-28T06:01:46.704Z,4.33
2018-06-28T06:04:15.137Z,5.78
2018-06-28T06:06:43.601Z,5.10
2018-06-28T06:09:12.542Z,5.17
2018-06-28T06:11:40.996Z,8.30
2018-06-28T06:14:09.480Z,5.80
2018-06-28T06:16:38.006Z,5.72
2018-06-28T06:19:06.590Z,4.62
2018-06-28T06:21:35.126Z,4.87
2018-06-28T06:24:03.613Z,5.95
2018-06-28T06:26:32.066Z,5.12
2018-06-28T06:29:00.555Z,5.53
2018-06-28T06:31:29.187Z,5.65
2018-06-28T06:33:57.680Z,5.37
2018-06-28T06:36:26.188Z,5.40
2018-06-28T06:38:54.736Z,4.60
2018-06-28T06:41:23.160Z,4.75
2018-06-28T06:43:51.601Z,4.10
2018-06-28T06:46:20.153Z,5.67
2018-06-28T06:48:48.600Z,5.22
2018-06-28T06:51:17.072Z,4.40
2018-06-28T06:53:45.493Z,8.53
2018-06-28T06:56:13.978Z,5.05
2018-06-28T06:58:42.425Z,4.80
2018-06-28T07:01:10.872Z,5.80
2018-06-28T07:03:39.477Z,5.62
2018-06-28T07:06:07.897Z,5.72
2018-06-28T07:08:36.341Z,5.87
2018-06-28T07:11:04.790Z,6.70
2018-06-28T07:13:33.233Z,5.37
2018-06-28T07:16:01.964Z,7.40
2018-06-28T07:18:30.410Z,7.15
2018-06-28T07:20:58.869Z,5.45
2018-06-28T07:23:27.302Z,6.03
2018-06-28T07:25:55.743Z,5.72
2018-06-28T07:28:24.222Z,10.05
2018-06-28T07:30:52.687Z,5.67
2018-06-28T07:33:21.155Z,6.42
2018-06-28T07:35:49.580Z,5.15
2018-06-28T07:38:18.071Z,4.97
2018-06-28T07:40:46.541Z,6.53
2018-06-28T07:43:15.041Z,5.58
2018-06-28T07:45:43.631Z,4.72
2018-06-28T07:48:12.077Z,3.98
2018-06-28T07:50:40.592Z,3.75
2018-06-28T07:53:09.077Z,5.80
2018-06-28T07:55:37.536Z,4.33
2018-06-28T07:58:06.084Z,4.90
2018-06-28T08:00:34.541Z,4.25
2018-06-28T08:03:03.017Z,4.22
2018-06-28T08:05:31.489Z,7.35
2018-06-28T08:08:00.035Z,4.62
2018-06-28T08:10:28.497Z,5.42
2018-06-28T08:12:56.977Z,6.40
2018-06-28T08:15:25.426Z,8.35
2018-06-28T08:17:53.922Z,5.92
2018-06-28T08:20:22.433Z,8.03
2018-06-28T08:22:50.909Z,5.17
2018-06-28T08:25:19.361Z,5.35
2018-06-28T08:27:47.828Z,6.15
2018-06-28T08:30:16.285Z,7.92
2018-06-28T08:32:44.746Z,7.75
2018-06-28T08:35:13.241Z,6.95
2018-06-28T08:37:41.903Z,5.85
2018-06-28T08:40:10.389Z,9.20
2018-06-28T08:42:38.810Z,6.90
2018-06-28T08:45:07.269Z,7.08
2018-06-28T08:47:35.720Z,7.92
2018-06-28T08:50:03.956Z,7.92
2018-06-28T08:52:32.401Z,7.40
2018-06-28T08:55:00.848Z,8.98
2018-06-28T08:57:29.261Z,8.25
2018-06-28T08:59:57.740Z,9.10
2018-06-28T09:02:26.221Z,9.75
2018-06-28T09:04:54.750Z,9.03
2018-06-28T09:07:23.237Z,10.30
2018-06-28T09:09:51.756Z,9.33
2018-06-28T09:12:20.229Z,11.18
2018-06-28T09:14:48.742Z,11.03
2018-06-28T09:17:17.193Z,9.65
2018-06-28T09:19:45.719Z,10.98
2018-06-28T09:22:14.184Z,9.63
2018-06-28T09:24:42.644Z,10.45
2018-06-28T09:27:11.199Z,9.23
2018-06-28T09:29:39.721Z,9.50
2018-06-28T09:32:08.192Z,11.28
2018-06-28T09:34:36.676Z,11.05
2018-06-28T09:37:05.321Z,10.35
2018-06-28T09:39:33.793Z,10.13
2018-06-28T09:42:02.220Z,10.65
2018-06-28T09:44:30.712Z,11.30
2018-06-28T09:46:59.157Z,10.88
2018-06-28T09:49:27.614Z,10.93
2018-06-28T09:51:56.045Z,11.12
2018-06-28T09:54:24.529Z,13.90
2018-06-28T09:56:53.000Z,12.07
2018-06-28T09:59:21.477Z,11.73
2018-06-28T10:01:49.921Z,11.45
2018-06-28T10:04:18.368Z,10.88
2018-06-28T10:06:46.921Z,11.60
2018-06-28T10:09:15.389Z,10.13
2018-06-28T10:11:43.832Z,11.78
2018-06-28T10:14:12.345Z,11.65
2018-06-28T10:16:40.810Z,13.15
2018-06-28T10:19:09.304Z,11.03
2018-06-28T10:21:37.748Z,14.10
2018-06-28T10:24:06.259Z,11.53
2018-06-28T10:26:34.737Z,11.75
2018-06-28T10:29:03.161Z,14.98
2018-06-28T10:31:31.638Z,11.73
2018-06-28T10:34:00.081Z,12.43
2018-06-28T10:36:28.536Z,12.68
2018-06-28T10:38:56.981Z,11.53
2018-06-28T10:41:25.497Z,11.53
2018-06-28T10:43:53.906Z,11.65
2018-06-28T10:46:22.398Z,11.15
2018-06-28T10:48:50.848Z,13.65
2018-06-28T10:51:19.326Z,9.63
2018-06-28T10:53:47.806Z,9.15
2018-06-28T10:56:16.254Z,9.90
2018-06-28T10:58:44.691Z,8.85
2018-06-28T11:01:13.147Z,10.60
2018-06-28T11:03:41.582Z,9.33
2018-06-28T11:06:10.197Z,10.68
2018-06-28T11:08:38.679Z,11.15
2018-06-28T11:11:07.197Z,9.50
2018-06-28T11:13:35.617Z,10.50
2018-06-28T11:16:04.148Z,9.48
2018-06-28T11:18:32.601Z,9.20
2018-06-28T11:21:01.042Z,10.05
2018-06-28T11:23:29.456Z,10.05
2018-06-28T11:25:57.997Z,9.08
2018-06-28T11:28:26.413Z,12.05
2018-06-28T11:30:54.900Z,9.10
2018-06-28T11:33:23.346Z,8.38
2018-06-28T11:35:51.832Z,9.40
2018-06-28T11:38:20.237Z,10.00
2018-06-28T11:40:48.717Z,9.08
2018-06-28T11:43:17.162Z,10.68
2018-06-28T11:45:45.649Z,11.78
2018-06-28T11:48:14.090Z,12.80
2018-06-28T11:50:42.576Z,12.00
2018-06-28T11:53:11.016Z,12.98
2018-06-28T11:55:39.481Z,13.00
2018-06-28T11:58:07.941Z,13.15
2018-06-28T12:00:36.474Z,12.65
2018-06-28T12:03:04.960Z,12.63
2018-06-28T12:05:33.465Z,14.40
2018-06-28T12:08:01.913Z,12.20
2018-06-28T12:10:30.347Z,12.55
2018-06-28T12:12:58.900Z,12.75
2018-06-28T12:15:27.341Z,14.00
2018-06-28T12:17:55.813Z,14.10
2018-06-28T12:20:24.315Z,14.80
2018-06-28T12:22:52.774Z,14.50
2018-06-28T12:25:21.278Z,14.47
2018-06-28T12:27:49.835Z,16.17
2018-06-28T12:30:18.255Z,16.07
2018-06-28T12:32:46.775Z,17.30
2018-06-28T12:35:15.220Z,15.75
2018-06-28T12:37:43.713Z,14.45
2018-06-28T12:40:12.185Z,15.95
2018-06-28T12:42:40.680Z,15.05
2018-06-28T12:45:08.876Z,16.32
2018-06-28T12:47:56.253Z,16.37
2018-06-28T12:50:24.737Z,15.45
2018-06-28T12:52:54.891Z,15.85
2018-06-28T12:55:23.852Z,16.73
2018-06-28T12:57:53.999Z,18.37
2018-06-28T13:00:22.481Z,16.93
2018-06-28T13:02:50.972Z,18.37
2018-06-28T13:05:19.389Z,19.20
2018-06-28T13:07:47.910Z,17.77
2018-06-28T13:10:17.815Z,17.07
2018-06-28T13:12:46.486Z,18.25
2018-06-28T13:15:15.584Z,16.15
2018-06-28T13:17:44.069Z,16.65
2018-06-28T13:20:12.540Z,14.50
2018-06-28T13:22:41.499Z,16.12
2018-06-28T13:25:11.232Z,15.00
2018-06-28T13:27:39.744Z,15.18
2018-06-28T13:30:09.315Z,15.60
2018-06-28T13:32:37.798Z,17.98
2018-06-28T13:35:06.292Z,15.03
2018-06-28T13:37:34.764Z,19.92
2018-06-28T13:40:03.257Z,20.43
2018-06-28T13:42:31.757Z,18.67
2018-06-28T13:45:00.246Z,18.42
2018-06-28T13:47:28.748Z,18.95
2018-06-28T13:49:57.212Z,21.87
2018-06-28T13:52:25.669Z,20.20
2018-06-28T13:54:54.092Z,19.50
2018-06-28T13:57:22.549Z,15.83
2018-06-28T13:59:51.004Z,20.08
2018-06-28T14:02:19.485Z,17.60
2018-06-28T14:04:47.969Z,15.20
2018-06-28T14:07:16.424Z,14.83
2018-06-28T14:09:44.888Z,15.20
2018-06-28T14:12:13.338Z,13.70
2018-06-28T14:14:41.505Z,13.83
2018-06-28T14:17:09.998Z,15.10
2018-06-28T14:19:38.673Z,15.00
2018-06-28T14:22:07.208Z,14.95
2018-06-28T14:24:35.625Z,17.65
2018-06-28T14:27:04.196Z,16.05
2018-06-28T14:29:32.701Z,19.52
2018-06-28T14:32:01.164Z,16.52
2018-06-28T14:34:29.661Z,14.73
2018-06-28T14:36:58.128Z,19.37
2018-06-28T14:39:26.646Z,17.55
2018-06-28T14:41:55.064Z,17.05
2018-06-28T14:44:23.588Z,15.48
2018-06-28T14:46:52.012Z,13.13
2018-06-28T14:49:20.474Z,11.63
2018-06-28T14:51:48.923Z,15.03
2018-06-28T14:54:17.412Z,13.78
2018-06-28T14:56:46.088Z,13.25
2018-06-28T14:59:14.549Z,14.87
2018-06-28T15:02:16.969Z,15.30
2018-06-28T15:04:45.472Z,14.75
2018-06-28T15:07:13.949Z,15.90
2018-06-28T15:09:42.482Z,13.43
2018-06-28T15:12:10.929Z,12.53
2018-06-28T15:14:39.407Z,13.53
2018-06-28T15:17:08.037Z,14.70
2018-06-28T15:19:36.538Z,14.20
2018-06-28T15:22:04.977Z,9.65
2018-06-28T15:24:33.445Z,8.65
2018-06-28T15:27:01.945Z,9.20
2018-06-28T15:29:30.435Z,8.33
2018-06-28T15:31:58.872Z,9.15
2018-06-28T15:34:27.323Z,9.60
2018-06-28T15:36:55.782Z,10.18
2018-06-28T15:39:24.235Z,11.15
2018-06-28T15:41:52.700Z,10.75
2018-06-28T15:44:21.161Z,8.98
2018-06-28T15:46:49.623Z,10.00
2018-06-28T15:49:18.075Z,10.32
2018-06-28T15:51:46.524Z,9.58
2018-06-28T15:54:14.982Z,12.18
2018-06-28T15:56:43.429Z,10.15
2018-06-28T15:59:11.898Z,9.23
2018-06-28T16:01:40.350Z,8.98
2018-06-28T16:04:08.835Z,11.70
2018-06-28T16:06:37.017Z,8.73
2018-06-28T16:09:08.113Z,8.80
2018-06-28T16:11:36.624Z,6.97
2018-06-28T16:14:05.130Z,6.37
2018-06-28T16:16:33.639Z,7.28
2018-06-28T16:19:02.175Z,9.23
2018-06-28T16:21:30.737Z,11.12
2018-06-28T16:23:59.190Z,8.68
2018-06-28T16:26:27.641Z,6.85
2018-06-28T16:28:56.161Z,7.12
2018-06-28T16:31:24.644Z,7.72
2018-06-28T16:33:53.073Z,7.58
2018-06-28T16:36:21.560Z,6.78
2018-06-28T16:38:50.062Z,7.30
2018-06-28T16:41:18.552Z,7.85
2018-06-28T16:43:47.021Z,8.40
2018-06-28T16:46:15.565Z,8.20
2018-06-28T16:48:43.964Z,9.33
2018-06-28T16:51:12.432Z,8.05
2018-06-28T16:53:40.861Z,7.83
2018-06-28T16:56:09.301Z,9.88
2018-06-28T16:58:37.723Z,11.35
2018-06-28T17:01:06.229Z,8.78
2018-06-28T17:03:34.648Z,9.23
2018-06-28T17:06:03.101Z,9.73
2018-06-28T17:08:31.552Z,8.95
2018-06-28T17:11:00.057Z,9.83
2018-06-28T17:13:28.499Z,8.35
2018-06-28T17:15:57.013Z,11.55
2018-06-28T17:18:25.527Z,8.70
2018-06-28T17:20:54.013Z,10.20
2018-06-28T17:23:22.472Z,8.93
2018-06-28T17:25:50.927Z,7.75
2018-06-28T17:28:19.396Z,8.35
2018-06-28T17:30:47.853Z,8.35
2018-06-28T17:33:16.280Z,9.20
2018-06-28T17:35:44.755Z,9.40
2018-06-28T17:38:13.247Z,7.90
2018-06-28T17:40:41.713Z,8.38
2018-06-28T17:43:10.142Z,7.83
2018-06-28T17:45:38.627Z,7.75
2018-06-28T17:48:07.081Z,9.10
2018-06-28T17:50:35.533Z,8.58
2018-06-28T17:53:04.011Z,8.28
2018-06-28T17:55:32.457Z,7.15
2018-06-28T17:58:00.972Z,6.17
2018-06-28T18:00:29.384Z,6.40
2018-06-28T18:02:57.861Z,9.10
2018-06-28T18:05:26.300Z,7.83
2018-06-28T18:07:54.846Z,7.58
2018-06-28T18:10:23.292Z,8.35
2018-06-28T18:12:51.813Z,8.68
2018-06-28T18:15:20.420Z,10.03
2018-06-28T18:17:48.756Z,9.05
2018-06-28T18:20:17.292Z,8.35
2018-06-28T18:22:45.821Z,8.80
2018-06-28T18:25:14.276Z,8.53
2018-06-28T18:27:42.809Z,7.70
2018-06-28T18:30:11.342Z,9.23
2018-06-28T18:32:39.883Z,8.10
2018-06-28T18:35:08.329Z,8.30
2018-06-28T18:37:36.855Z,9.25
2018-06-28T18:40:05.604Z,8.28
2018-06-28T18:42:34.153Z,7.62
2018-06-28T18:45:02.642Z,9.80
2018-06-28T18:47:31.160Z,9.48
2018-06-28T18:49:59.612Z,9.70
2018-06-28T18:52:28.073Z,11.63
2018-06-28T18:54:56.540Z,12.25
2018-06-28T18:57:25.082Z,9.58
2018-06-28T18:59:53.533Z,8.90
2018-06-28T19:02:22.006Z,9.73
2018-06-28T19:04:50.556Z,8.75
2018-06-28T19:07:19.073Z,8.90
2018-06-28T19:09:52.821Z,9.00
2018-06-28T19:12:21.317Z,9.73
2018-06-28T19:14:55.069Z,9.88
2018-06-28T19:17:23.618Z,9.83
2018-06-28T19:19:51.736Z,10.45
2018-06-28T19:22:25.388Z,9.63
2018-06-28T19:24:53.861Z,9.18
2018-06-28T19:27:22.368Z,8.55
2018-06-28T19:29:56.238Z,9.30
2018-06-28T19:32:32.093Z,8.88
2018-06-28T19:35:01.380Z,9.33
2018-06-28T19:37:35.462Z,8.65
2018-06-28T19:40:10.050Z,8.90
2018-06-28T19:42:43.697Z,10.82
2018-06-28T19:45:12.138Z,11.00
2018-06-28T19:47:40.618Z,10.85
2018-06-28T19:50:14.301Z,10.00
2018-06-28T19:52:47.959Z,10.50
2018-06-28T19:55:16.431Z,11.10
2018-06-28T19:57:44.970Z,12.82
2018-06-28T20:00:18.722Z,11.40
2018-06-28T20:02:52.428Z,10.75
2018-06-28T20:05:20.881Z,12.53
2018-06-28T20:07:49.386Z,13.20
2018-06-28T20:10:17.860Z,13.15
2018-06-28T20:12:51.724Z,13.35
2018-06-28T20:15:35.508Z,15.53
2018-06-28T20:18:09.277Z,16.10
2018-06-28T20:20:37.769Z,13.65
2018-06-28T20:23:06.230Z,12.50
2018-06-28T20:25:34.709Z,13.55
2018-06-28T20:28:08.601Z,15.18
2018-06-28T20:30:42.512Z,11.78
2018-06-28T20:33:16.353Z,12.60
2018-06-28T20:35:44.833Z,12.68
2018-06-28T20:38:13.260Z,12.47
2018-06-28T20:40:41.727Z,14.00
2018-06-28T20:43:10.187Z,16.62
2018-06-28T20:45:38.672Z,13.68
2018-06-28T20:48:07.286Z,17.77
2018-06-28T20:50:35.804Z,15.25
2018-06-28T20:53:04.245Z,16.05
2018-06-28T20:55:32.800Z,15.20
2018-06-28T20:58:01.207Z,13.43
2018-06-28T21:00:29.694Z,14.58
2018-06-28T21:02:58.175Z,14.58
2018-06-28T21:05:26.325Z,14.23
2018-06-28T21:07:54.813Z,12.45
2018-06-28T21:10:23.461Z,11.90
2018-06-28T21:12:52.100Z,12.15
2018-06-28T21:15:21.224Z,12.37
2018-06-28T21:17:49.680Z,15.03
2018-06-28T21:20:18.155Z,11.50
2018-06-28T21:22:46.604Z,13.43
2018-06-28T21:25:15.576Z,13.65
2018-06-28T21:27:44.064Z,15.03
2018-06-28T21:30:12.532Z,13.60
2018-06-28T21:32:40.983Z,12.58
2018-06-28T21:35:09.495Z,11.08
2018-06-28T21:37:37.935Z,11.15
2018-06-28T21:40:06.476Z,11.30
2018-06-28T21:42:34.902Z,13.62
2018-06-28T21:45:03.405Z,13.88
2018-06-28T21:47:31.824Z,12.73
2018-06-28T21:50:00.274Z,11.35
2018-06-28T21:52:28.695Z,12.20
2018-06-28T21:54:57.192Z,12.65
2018-06-28T21:57:25.633Z,9.35
2018-06-28T21:59:54.113Z,12.30
2018-06-28T22:02:22.572Z,14.13
2018-06-28T22:04:51.033Z,13.98
2018-06-28T22:07:19.524Z,14.98
2018-06-28T22:09:47.966Z,14.85
2018-06-28T22:12:16.414Z,14.07
2018-06-28T22:14:45.829Z,12.95
2018-06-28T22:17:14.648Z,16.57
2018-06-28T22:19:43.169Z,12.10
2018-06-28T22:22:11.673Z,13.38
2018-06-28T22:24:40.154Z,13.48
2018-06-28T22:27:08.613Z,12.15
2018-06-28T22:29:37.060Z,14.85
2018-06-28T22:32:05.597Z,15.05
2018-06-28T22:34:34.056Z,12.65
2018-06-28T22:37:02.734Z,12.78
2018-06-28T22:39:31.180Z,14.07
2018-06-28T22:41:59.643Z,15.85
2018-06-28T22:44:28.113Z,14.90
2018-06-28T22:46:56.587Z,13.28
2018-06-28T22:49:25.035Z,17.27
2018-06-28T22:51:53.528Z,14.85
2018-06-28T22:54:21.948Z,18.57
2018-06-28T22:56:50.410Z,16.73
2018-06-28T22:59:18.872Z,16.50
2018-06-28T23:01:47.373Z,18.67
2018-06-28T23:04:15.538Z,16.77
2018-06-28T23:06:44.225Z,21.93
2018-06-28T23:09:12.648Z,21.52
2018-06-28T23:11:41.117Z,14.07
2018-06-28T23:14:09.566Z,14.90
2018-06-28T23:16:38.069Z,15.55
2018-06-28T23:19:06.561Z,18.73
2018-06-28T23:21:35.031Z,21.80
2018-06-28T23:24:03.469Z,14.83
2018-06-28T23:26:31.612Z,15.40
2018-06-28T23:29:00.041Z,16.15
2018-06-28T23:31:28.501Z,14.80
2018-06-28T23:33:57.034Z,14.35
2018-06-28T23:36:25.520Z,14.73
2018-06-28T23:38:53.965Z,18.00
2018-06-28T23:41:22.431Z,15.03
2018-06-28T23:43:50.862Z,13.38
2018-06-28T23:46:19.291Z,12.78
2018-06-28T23:48:47.749Z,14.50
2018-06-28T23:51:16.431Z,16.27
2018-06-28T23:53:44.909Z,16.42
2018-06-28T23:56:13.337Z,16.42
2018-06-28T23:58:42.291Z,14.85
